createdAt,value
2018-02-11T00:00:48.801Z,0
2018-02-11T00:01:48.379Z,0
2018-02-11T00:02:48.348Z,0
2018-02-11T00:03:48.566Z,0
2018-02-11T00:04:48.287Z,0
2018-02-11T00:05:48.259Z,0
2018-02-11T00:06:48.477Z,0
2018-02-11T00:07:47.949Z,0
2018-02-11T00:08:48.413Z,0
2018-02-11T00:09:48.397Z,0
2018-02-11T00:10:48.110Z,0
2018-02-11T00:11:48.071Z,0
2018-02-11T00:12:48.312Z,0
2018-02-11T00:13:48.260Z,0
2018-02-11T00:14:48.232Z,0
2018-02-11T00:15:47.459Z,0
2018-02-11T00:16:48.178Z,0
2018-02-11T00:17:48.132Z,0
2018-02-11T00:18:48.105Z,0
2018-02-11T00:19:48.072Z,0
2018-02-11T00:20:48.048Z,0
2018-02-11T00:21:48.020Z,0
2018-02-11T00:22:47.741Z,0
2018-02-11T00:23:47.946Z,0
2018-02-11T00:24:47.676Z,0
2018-02-11T00:25:47.648Z,0
2018-02-11T00:26:47.617Z,0
2018-02-11T00:27:47.583Z,0
2018-02-11T00:28:47.799Z,0
2018-02-11T00:29:47.770Z,0
2018-02-11T00:30:47.498Z,0
2018-02-11T00:31:47.702Z,0
2018-02-11T00:32:47.678Z,0
2018-02-11T00:33:47.646Z,0
2018-02-11T00:34:47.611Z,0
2018-02-11T00:35:47.091Z,0
2018-02-11T00:36:47.311Z,0
2018-02-11T00:37:47.531Z,0
2018-02-11T00:38:47.496Z,0
2018-02-11T00:39:46.966Z,0
2018-02-11T00:40:47.436Z,0
2018-02-11T00:41:47.161Z,0
2018-02-11T00:42:47.377Z,0
2018-02-11T00:43:47.106Z,0
2018-02-11T00:44:47.310Z,0
2018-02-11T00:45:46.791Z,0
2018-02-11T00:46:47.250Z,0
2018-02-11T00:47:46.979Z,0
2018-02-11T00:48:46.947Z,0
2018-02-11T00:49:46.670Z,0
2018-02-11T00:50:46.887Z,0
2018-02-11T00:51:47.099Z,0
2018-02-11T00:52:46.583Z,0
2018-02-11T00:53:46.795Z,0
2018-02-11T00:54:47.016Z,0
2018-02-11T00:55:46.742Z,0
2018-02-11T00:56:46.946Z,0
2018-02-11T00:57:46.673Z,0
2018-02-11T00:58:46.649Z,0
2018-02-11T00:59:46.607Z,0
2018-02-11T01:00:46.585Z,0
2018-02-11T01:01:46.555Z,0
2018-02-11T01:02:46.522Z,0
2018-02-11T01:03:46.735Z,0
2018-02-11T01:04:46.710Z,0
2018-02-11T01:05:46.428Z,0
2018-02-11T01:06:46.650Z,0
2018-02-11T01:07:46.367Z,0
2018-02-11T01:08:46.090Z,0
2018-02-11T01:09:46.553Z,0
2018-02-11T01:10:46.279Z,0
2018-02-11T01:11:46.248Z,0
2018-02-11T01:12:46.477Z,0
2018-02-11T01:13:46.432Z,0
2018-02-11T01:14:46.155Z,0
2018-02-11T01:15:46.134Z,0
2018-02-11T01:16:45.853Z,0
2018-02-11T01:17:45.821Z,0
2018-02-11T01:18:46.032Z,0
2018-02-11T01:19:45.509Z,0
2018-02-11T01:20:45.975Z,0
2018-02-11T01:21:45.948Z,0
2018-02-11T01:22:46.161Z,0
2018-02-11T01:23:45.634Z,0
2018-02-11T01:24:45.880Z,0
2018-02-11T01:25:45.822Z,0
2018-02-11T01:26:46.039Z,0
2018-02-11T01:27:45.766Z,0
2018-02-11T01:28:45.978Z,0
2018-02-11T01:29:45.948Z,0
2018-02-11T01:30:45.915Z,0
2018-02-11T01:31:45.634Z,0
2018-02-11T01:32:45.464Z,0
2018-02-11T01:33:45.828Z,0
2018-02-11T01:34:45.549Z,0
2018-02-11T01:35:45.516Z,0
2018-02-11T01:36:45.736Z,0
2018-02-11T01:37:45.736Z,0
2018-02-11T01:38:45.677Z,0
2018-02-11T01:39:45.399Z,0
2018-02-11T01:40:45.366Z,0
2018-02-11T01:41:45.582Z,0
2018-02-11T01:42:45.310Z,0
2018-02-11T01:43:45.278Z,0
2018-02-11T01:44:45.496Z,0
2018-02-11T01:45:45.515Z,0
2018-02-11T01:46:45.436Z,0
2018-02-11T01:47:45.410Z,0
2018-02-11T01:48:45.376Z,0
2018-02-11T01:49:45.337Z,0
2018-02-11T01:50:44.818Z,0
2018-02-11T01:51:45.035Z,0
2018-02-11T01:52:45.252Z,0
2018-02-11T01:53:44.972Z,0
2018-02-11T01:54:44.940Z,0
2018-02-11T01:55:45.158Z,0
2018-02-11T01:56:44.876Z,0
2018-02-11T01:57:45.104Z,0
2018-02-11T01:58:44.826Z,0
2018-02-11T01:59:44.544Z,0
2018-02-11T02:00:44.759Z,0
2018-02-11T02:01:44.484Z,0
2018-02-11T02:02:44.700Z,0
2018-02-11T02:03:44.170Z,0
2018-02-11T02:04:44.875Z,0
2018-02-11T02:05:44.900Z,0
2018-02-11T02:06:44.578Z,0
2018-02-11T02:07:44.550Z,0
2018-02-11T02:08:44.511Z,0
2018-02-11T02:09:43.992Z,0
2018-02-11T02:10:44.211Z,0
2018-02-11T02:11:44.417Z,0
2018-02-11T02:12:44.387Z,0
2018-02-11T02:13:44.358Z,0
2018-02-11T02:14:44.583Z,0
2018-02-11T02:15:44.296Z,0
2018-02-11T02:16:44.510Z,0
2018-02-11T02:17:44.481Z,0
2018-02-11T02:18:44.203Z,0
2018-02-11T02:19:44.177Z,0
2018-02-11T02:20:44.145Z,0
2018-02-11T02:21:44.353Z,0
2018-02-11T02:22:44.331Z,0
2018-02-11T02:23:44.308Z,0
2018-02-11T02:24:44.026Z,0
2018-02-11T02:25:44.240Z,0
2018-02-11T02:26:44.209Z,0
2018-02-11T02:27:44.177Z,0
2018-02-11T02:28:43.650Z,0
2018-02-11T02:29:44.110Z,0
2018-02-11T02:30:43.837Z,0
2018-02-11T02:31:44.059Z,0
2018-02-11T02:32:43.780Z,0
2018-02-11T02:33:43.753Z,0
2018-02-11T02:34:43.728Z,0
2018-02-11T02:35:43.680Z,0
2018-02-11T02:36:43.671Z,0
2018-02-11T02:37:43.874Z,0
2018-02-11T02:38:43.838Z,0
2018-02-11T02:39:43.809Z,0
2018-02-11T02:40:43.529Z,0
2018-02-11T02:41:43.504Z,0
2018-02-11T02:42:43.470Z,0
2018-02-11T02:43:43.452Z,0
2018-02-11T02:44:43.664Z,0
2018-02-11T02:45:43.389Z,0
2018-02-11T02:46:43.601Z,0
2018-02-11T02:47:43.316Z,0
2018-02-11T02:48:43.530Z,0
2018-02-11T02:49:43.500Z,0
2018-02-11T02:50:43.468Z,0
2018-02-11T02:51:43.190Z,0
2018-02-11T02:52:42.917Z,0
2018-02-11T02:53:43.393Z,0
2018-02-11T02:54:43.354Z,0
2018-02-11T02:55:43.345Z,0
2018-02-11T02:56:43.046Z,0
2018-02-11T02:57:43.260Z,0
2018-02-11T02:58:43.231Z,0
2018-02-11T02:59:43.206Z,0
2018-02-11T03:00:42.922Z,0
2018-02-11T03:01:43.139Z,0
2018-02-11T03:02:43.101Z,0
2018-02-11T03:03:43.074Z,0
2018-02-11T03:04:42.801Z,0
2018-02-11T03:05:42.772Z,0
2018-02-11T03:06:42.733Z,0
2018-02-11T03:07:42.703Z,0
2018-02-11T03:08:42.671Z,0
2018-02-11T03:09:42.642Z,0
2018-02-11T03:10:42.610Z,0
2018-02-11T03:11:42.337Z,0
2018-02-11T03:12:42.551Z,0
2018-02-11T03:13:42.273Z,0
2018-02-11T03:14:42.250Z,0
2018-02-11T03:15:42.458Z,0
2018-02-11T03:16:42.448Z,0
2018-02-11T03:17:42.657Z,0
2018-02-11T03:18:42.621Z,0
2018-02-11T03:19:42.433Z,0
2018-02-11T03:20:41.814Z,0
2018-02-11T03:21:42.281Z,0
2018-02-11T03:22:42.263Z,0
2018-02-11T03:23:42.464Z,0
2018-02-11T03:24:42.530Z,0
2018-02-11T03:25:42.405Z,0
2018-02-11T03:26:42.130Z,0
2018-02-11T03:27:42.093Z,0
2018-02-11T03:28:42.314Z,0
2018-02-11T03:29:42.281Z,0
2018-02-11T03:30:42.256Z,0
2018-02-11T03:31:42.229Z,0
2018-02-11T03:32:42.191Z,0
2018-02-11T03:33:41.915Z,0
2018-02-11T03:34:42.247Z,0
2018-02-11T03:35:41.640Z,0
2018-02-11T03:36:42.115Z,0
2018-02-11T03:37:42.042Z,0
2018-02-11T03:38:42.001Z,0
2018-02-11T03:39:41.973Z,0
2018-02-11T03:40:41.705Z,0
2018-02-11T03:41:41.673Z,0
2018-02-11T03:42:40.899Z,0
2018-02-11T03:43:41.610Z,0
2018-02-11T03:44:41.581Z,0
2018-02-11T03:45:41.556Z,0
2018-02-11T03:46:41.764Z,0
2018-02-11T03:47:41.494Z,0
2018-02-11T03:48:41.457Z,0
2018-02-11T03:49:41.424Z,0
2018-02-11T03:50:41.148Z,0
2018-02-11T03:51:41.135Z,0
2018-02-11T03:52:41.588Z,0
2018-02-11T03:53:41.311Z,0
2018-02-11T03:54:41.529Z,0
2018-02-11T03:55:41.250Z,0
2018-02-11T03:56:41.216Z,0
2018-02-11T03:57:41.426Z,0
2018-02-11T03:58:41.409Z,0
2018-02-11T03:59:41.371Z,0
2018-02-11T04:00:41.095Z,0
2018-02-11T04:01:41.322Z,0
2018-02-11T04:02:41.038Z,0
2018-02-11T04:03:41.250Z,0
2018-02-11T04:04:41.221Z,0
2018-02-11T04:05:40.943Z,0
2018-02-11T04:06:41.160Z,0
2018-02-11T04:07:41.182Z,0
2018-02-11T04:08:40.856Z,0
2018-02-11T04:09:40.578Z,0
2018-02-11T04:10:41.044Z,0
2018-02-11T04:11:40.765Z,0
2018-02-11T04:12:40.488Z,0
2018-02-11T04:13:40.708Z,0
2018-02-11T04:14:40.677Z,0
2018-02-11T04:15:40.890Z,0
2018-02-11T04:16:40.856Z,0
2018-02-11T04:17:40.578Z,0
2018-02-11T04:18:40.598Z,0
2018-02-11T04:19:40.765Z,0
2018-02-11T04:20:40.736Z,0
2018-02-11T04:21:40.459Z,0
2018-02-11T04:22:40.427Z,0
2018-02-11T04:23:40.404Z,0
2018-02-11T04:24:40.621Z,0
2018-02-11T04:25:40.591Z,0
2018-02-11T04:26:40.058Z,0
2018-02-11T04:27:40.520Z,0
2018-02-11T04:28:40.004Z,0
2018-02-11T04:29:40.218Z,0
2018-02-11T04:30:40.431Z,0
2018-02-11T04:31:40.412Z,0
2018-02-11T04:32:40.370Z,0
2018-02-11T04:33:40.337Z,0
2018-02-11T04:34:40.308Z,0
2018-02-11T04:35:39.788Z,0
2018-02-11T04:36:40.247Z,0
2018-02-11T04:37:40.216Z,0
2018-02-11T04:38:39.936Z,0
2018-02-11T04:39:40.150Z,0
2018-02-11T04:40:39.876Z,0
2018-02-11T04:41:39.853Z,0
2018-02-11T04:42:39.817Z,0
2018-02-11T04:43:39.780Z,0
2018-02-11T04:44:39.263Z,0
2018-02-11T04:45:39.730Z,0
2018-02-11T04:46:39.459Z,0
2018-02-11T04:47:39.923Z,0
2018-02-11T04:48:39.387Z,0
2018-02-11T04:49:39.854Z,0
2018-02-11T04:50:39.811Z,0
2018-02-11T04:51:39.535Z,0
2018-02-11T04:52:39.571Z,0
2018-02-11T04:53:39.478Z,0
2018-02-11T04:54:38.963Z,0
2018-02-11T04:55:39.424Z,0
2018-02-11T04:56:39.150Z,0
2018-02-11T04:57:39.597Z,0
2018-02-11T04:58:39.568Z,0
2018-02-11T04:59:39.539Z,0
2018-02-11T05:00:39.506Z,0
2018-02-11T05:01:39.485Z,0
2018-02-11T05:02:39.197Z,0
2018-02-11T05:03:39.421Z,0
2018-02-11T05:04:39.143Z,0
2018-02-11T05:05:39.118Z,0
2018-02-11T05:06:39.075Z,0
2018-02-11T05:07:38.797Z,0
2018-02-11T05:08:39.011Z,0
2018-02-11T05:09:39.230Z,0
2018-02-11T05:10:39.199Z,0
2018-02-11T05:11:38.926Z,0
2018-02-11T05:12:39.135Z,0
2018-02-11T05:13:38.866Z,0
2018-02-11T05:14:38.835Z,0
2018-02-11T05:15:38.816Z,0
2018-02-11T05:16:38.523Z,0
2018-02-11T05:17:38.735Z,0
2018-02-11T05:18:38.947Z,0
2018-02-11T05:19:38.921Z,0
2018-02-11T05:20:38.893Z,0
2018-02-11T05:21:38.949Z,0
2018-02-11T05:22:38.926Z,0
2018-02-11T05:23:38.801Z,0
2018-02-11T05:24:38.523Z,0
2018-02-11T05:25:38.751Z,0
2018-02-11T05:26:38.214Z,0
2018-02-11T05:27:38.779Z,0
2018-02-11T05:28:38.403Z,0
2018-02-11T05:29:38.371Z,0
2018-02-11T05:30:38.582Z,0
2018-02-11T05:31:37.819Z,0
2018-02-11T05:32:38.286Z,0
2018-02-11T05:33:37.999Z,0
2018-02-11T05:34:38.459Z,0
2018-02-11T05:35:37.936Z,0
2018-02-11T05:36:38.175Z,0
2018-02-11T05:37:38.381Z,0
2018-02-11T05:38:38.349Z,0
2018-02-11T05:39:38.061Z,0
2018-02-11T05:40:38.048Z,0
2018-02-11T05:41:38.003Z,0
2018-02-11T05:42:38.228Z,0
2018-02-11T05:43:38.189Z,0
2018-02-11T05:44:37.668Z,0
2018-02-11T05:45:38.137Z,0
2018-02-11T05:46:37.851Z,0
2018-02-11T05:47:37.824Z,0
2018-02-11T05:48:38.031Z,0
2018-02-11T05:49:37.757Z,0
2018-02-11T05:50:37.724Z,0
2018-02-11T05:51:37.700Z,0
2018-02-11T05:52:37.666Z,0
2018-02-11T05:53:37.637Z,0
2018-02-11T05:54:37.895Z,0
2018-02-11T05:55:37.574Z,0
2018-02-11T05:56:37.543Z,0
2018-02-11T05:57:37.821Z,0
2018-02-11T05:58:37.485Z,0
2018-02-11T05:59:37.696Z,0
2018-02-11T06:00:37.666Z,0
2018-02-11T06:01:37.394Z,0
2018-02-11T06:02:37.598Z,0
2018-02-11T06:03:37.624Z,0
2018-02-11T06:04:37.542Z,0
2018-02-11T06:05:37.265Z,0
2018-02-11T06:06:37.244Z,0
2018-02-11T06:07:37.518Z,0
2018-02-11T06:08:37.419Z,0
2018-02-11T06:09:37.139Z,0
2018-02-11T06:10:37.110Z,0
2018-02-11T06:11:37.081Z,0
2018-02-11T06:12:37.060Z,0
2018-02-11T06:13:37.031Z,0
2018-02-11T06:14:36.746Z,0
2018-02-11T06:15:36.960Z,0
2018-02-11T06:16:36.925Z,0
2018-02-11T06:17:37.203Z,0
2018-02-11T06:18:36.868Z,0
2018-02-11T06:19:37.084Z,0
2018-02-11T06:20:37.054Z,0
2018-02-11T06:21:37.037Z,0
2018-02-11T06:22:36.755Z,0
2018-02-11T06:23:37.031Z,0
2018-02-11T06:24:36.438Z,0
2018-02-11T06:25:36.410Z,0
2018-02-11T06:26:36.869Z,0
2018-02-11T06:27:36.843Z,0
2018-02-11T06:28:36.558Z,0
2018-02-11T06:29:36.788Z,0
2018-02-11T06:30:36.757Z,0
2018-02-11T06:31:36.725Z,0
2018-02-11T06:32:36.440Z,0
2018-02-11T06:33:36.663Z,0
2018-02-11T06:34:36.385Z,0
2018-02-11T06:35:36.354Z,0
2018-02-11T06:36:36.326Z,0
2018-02-11T06:37:36.289Z,0
2018-02-11T06:38:36.260Z,0
2018-02-11T06:39:36.233Z,0
2018-02-11T06:40:36.441Z,0
2018-02-11T06:41:36.203Z,0
2018-02-11T06:42:36.140Z,0
2018-02-11T06:43:36.354Z,5
2018-02-11T06:44:35.833Z,5
2018-02-11T06:45:36.288Z,5
2018-02-11T06:46:36.263Z,5
2018-02-11T06:47:35.743Z,5
2018-02-11T06:48:36.202Z,5
2018-02-11T06:49:36.170Z,5
2018-02-11T06:50:35.649Z,5
2018-02-11T06:51:35.869Z,10
2018-02-11T06:52:35.832Z,10
2018-02-11T06:53:35.806Z,10
2018-02-11T06:54:36.021Z,10
2018-02-11T06:55:35.743Z,10
2018-02-11T06:56:35.710Z,10
2018-02-11T06:57:35.700Z,10
2018-02-11T06:58:35.157Z,10
2018-02-11T06:59:35.374Z,10
2018-02-11T07:00:35.600Z,10
2018-02-11T07:01:35.564Z,5
2018-02-11T07:02:35.818Z,10
2018-02-11T07:03:35.738Z,10
2018-02-11T07:04:35.471Z,10
2018-02-11T07:05:35.437Z,10
2018-02-11T07:06:35.159Z,10
2018-02-11T07:07:35.626Z,10
2018-02-11T07:08:35.648Z,15
2018-02-11T07:09:35.317Z,15
2018-02-11T07:10:35.287Z,20
2018-02-11T07:11:35.270Z,25
2018-02-11T07:12:35.224Z,25
2018-02-11T07:13:35.199Z,20
2018-02-11T07:14:35.164Z,20
2018-02-11T07:15:35.386Z,20
2018-02-11T07:16:34.854Z,20
2018-02-11T07:17:34.828Z,15
2018-02-11T07:18:35.046Z,15
2018-02-11T07:19:35.018Z,20
2018-02-11T07:20:34.738Z,25
2018-02-11T07:21:34.703Z,20
2018-02-11T07:22:35.175Z,25
2018-02-11T07:23:34.889Z,25
2018-02-11T07:24:34.615Z,25
2018-02-11T07:25:34.826Z,25
2018-02-11T07:26:34.801Z,25
2018-02-11T07:27:34.763Z,25
2018-02-11T07:28:34.739Z,25
2018-02-11T07:29:34.457Z,20
2018-02-11T07:30:34.190Z,20
2018-02-11T07:31:34.648Z,20
2018-02-11T07:32:34.616Z,25
2018-02-11T07:33:34.847Z,30
2018-02-11T07:34:34.613Z,40
2018-02-11T07:35:34.524Z,60
2018-02-11T07:36:34.741Z,55
2018-02-11T07:37:34.214Z,60
2018-02-11T07:38:34.188Z,55
2018-02-11T07:39:34.165Z,55
2018-02-11T07:40:34.622Z,45
2018-02-11T07:41:34.096Z,40
2018-02-11T07:42:34.073Z,45
2018-02-11T07:43:34.284Z,40
2018-02-11T07:44:34.257Z,40
2018-02-11T07:45:34.249Z,40
2018-02-11T07:46:33.700Z,50
2018-02-11T07:47:34.162Z,70
2018-02-11T07:48:34.382Z,75
2018-02-11T07:49:34.105Z,70
2018-02-11T07:50:33.833Z,65
2018-02-11T07:51:33.799Z,80
2018-02-11T07:52:34.259Z,75
2018-02-11T07:53:34.226Z,65
2018-02-11T07:54:33.952Z,65
2018-02-11T07:55:34.170Z,55
2018-02-11T07:56:34.138Z,50
2018-02-11T07:57:33.862Z,50
2018-02-11T07:58:34.075Z,60
2018-02-11T07:59:33.803Z,60
2018-02-11T08:00:33.286Z,60
2018-02-11T08:01:33.740Z,65
2018-02-11T08:02:33.958Z,70
2018-02-11T08:03:33.934Z,75
2018-02-11T08:04:33.412Z,55
2018-02-11T08:05:33.126Z,50
2018-02-11T08:06:33.595Z,50
2018-02-11T08:07:33.564Z,55
2018-02-11T08:08:33.776Z,55
2018-02-11T08:09:33.013Z,55
2018-02-11T08:10:33.716Z,65
2018-02-11T08:11:33.201Z,95
2018-02-11T08:12:33.172Z,130
2018-02-11T08:13:33.394Z,145
2018-02-11T08:14:33.599Z,130
2018-02-11T08:15:33.411Z,110
2018-02-11T08:16:33.046Z,105
2018-02-11T08:17:33.019Z,120
2018-02-11T08:18:33.242Z,130
2018-02-11T08:19:33.210Z,145
2018-02-11T08:20:33.234Z,165
2018-02-11T08:21:33.404Z,145
2018-02-11T08:22:33.367Z,145
2018-02-11T08:23:33.342Z,145
2018-02-11T08:24:33.058Z,140
2018-02-11T08:25:32.778Z,145
2018-02-11T08:26:32.750Z,165
2018-02-11T08:27:33.213Z,185
2018-02-11T08:28:33.191Z,180
2018-02-11T08:29:32.910Z,145
2018-02-11T08:30:32.392Z,155
2018-02-11T08:31:32.850Z,165
2018-02-11T08:32:33.064Z,150
2018-02-11T08:33:32.548Z,150
2018-02-11T08:34:32.814Z,155
2018-02-11T08:35:32.485Z,150
2018-02-11T08:36:32.211Z,160
2018-02-11T08:37:32.675Z,165
2018-02-11T08:38:32.642Z,185
2018-02-11T08:39:32.366Z,180
2018-02-11T08:40:32.337Z,175
2018-02-11T08:41:32.309Z,155
2018-02-11T08:42:32.526Z,155
2018-02-11T08:43:32.741Z,145
2018-02-11T08:44:31.974Z,145
2018-02-11T08:45:32.694Z,140
2018-02-11T08:46:31.925Z,115
2018-02-11T08:47:32.130Z,115
2018-02-11T08:48:32.596Z,115
2018-02-11T08:49:32.326Z,115
2018-02-11T08:50:32.284Z,115
2018-02-11T08:51:32.517Z,120
2018-02-11T08:52:32.233Z,105
2018-02-11T08:53:32.203Z,95
2018-02-11T08:54:32.172Z,80
2018-02-11T08:55:32.393Z,75
2018-02-11T08:56:32.362Z,65
2018-02-11T08:57:32.325Z,65
2018-02-11T08:58:31.809Z,70
2018-02-11T08:59:32.020Z,75
2018-02-11T09:00:31.751Z,75
2018-02-11T09:01:31.962Z,70
2018-02-11T09:02:31.934Z,70
2018-02-11T09:03:31.658Z,70
2018-02-11T09:04:31.879Z,70
2018-02-11T09:05:32.102Z,75
2018-02-11T09:06:31.321Z,80
2018-02-11T09:07:31.592Z,90
2018-02-11T09:08:32.000Z,105
2018-02-11T09:09:31.727Z,105
2018-02-11T09:10:31.450Z,95
2018-02-11T09:11:31.421Z,100
2018-02-11T09:12:31.881Z,100
2018-02-11T09:13:31.857Z,100
2018-02-11T09:14:31.578Z,135
2018-02-11T09:15:31.544Z,125
2018-02-11T09:16:31.767Z,135
2018-02-11T09:17:31.242Z,185
2018-02-11T09:18:31.458Z,170
2018-02-11T09:19:31.185Z,145
2018-02-11T09:20:31.157Z,175
2018-02-11T09:21:31.377Z,150
2018-02-11T09:22:31.414Z,175
2018-02-11T09:23:31.561Z,180
2018-02-11T09:24:31.278Z,190
2018-02-11T09:25:31.548Z,200
2018-02-11T09:26:31.218Z,150
2018-02-11T09:27:31.398Z,160
2018-02-11T09:28:31.416Z,205
2018-02-11T09:29:30.887Z,150
2018-02-11T09:30:31.350Z,150
2018-02-11T09:31:31.321Z,135
2018-02-11T09:32:30.796Z,180
2018-02-11T09:33:31.020Z,180
2018-02-11T09:34:31.232Z,190
2018-02-11T09:35:30.958Z,225
2018-02-11T09:36:31.179Z,205
2018-02-11T09:37:31.147Z,210
2018-02-11T09:38:30.627Z,215
2018-02-11T09:39:30.845Z,200
2018-02-11T09:40:30.566Z,185
2018-02-11T09:41:31.038Z,185
2018-02-11T09:42:30.757Z,195
2018-02-11T09:43:30.485Z,185
2018-02-11T09:44:30.938Z,255
2018-02-11T09:45:30.675Z,255
2018-02-11T09:46:30.888Z,265
2018-02-11T09:47:30.653Z,230
2018-02-11T09:48:30.578Z,240
2018-02-11T09:49:30.306Z,300
2018-02-11T09:50:30.310Z,410
2018-02-11T09:51:30.738Z,415
2018-02-11T09:52:30.713Z,370
2018-02-11T09:53:30.686Z,330
2018-02-11T09:54:31.320Z,265
2018-02-11T09:55:30.136Z,265
2018-02-11T09:56:30.101Z,280
2018-02-11T09:57:30.327Z,285
2018-02-11T09:58:30.051Z,225
2018-02-11T09:59:30.284Z,255
2018-02-11T10:00:30.239Z,230
2018-02-11T10:01:30.224Z,215
2018-02-11T10:02:30.187Z,215
2018-02-11T10:03:30.398Z,210
2018-02-11T10:04:30.124Z,185
2018-02-11T10:05:30.370Z,190
2018-02-11T10:06:30.073Z,205
2018-02-11T10:07:30.450Z,175
2018-02-11T10:08:30.262Z,185
2018-02-11T10:09:29.491Z,155
2018-02-11T10:10:29.957Z,145
2018-02-11T10:11:29.683Z,155
2018-02-11T10:12:29.657Z,200
2018-02-11T10:13:30.119Z,185
2018-02-11T10:14:29.596Z,150
2018-02-11T10:15:29.619Z,190
2018-02-11T10:16:29.792Z,135
2018-02-11T10:17:30.017Z,165
2018-02-11T10:18:29.291Z,200
2018-02-11T10:19:30.025Z,300
2018-02-11T10:20:29.207Z,370
2018-02-11T10:21:29.673Z,385
2018-02-11T10:22:29.870Z,420
2018-02-11T10:23:29.597Z,445
2018-02-11T10:24:29.571Z,520
2018-02-11T10:25:29.292Z,545
2018-02-11T10:26:29.263Z,610
2018-02-11T10:27:29.783Z,575
2018-02-11T10:28:29.455Z,575
2018-02-11T10:29:29.669Z,540
2018-02-11T10:30:29.156Z,485
2018-02-11T10:31:29.369Z,545
2018-02-11T10:32:29.096Z,540
2018-02-11T10:33:29.590Z,505
2018-02-11T10:34:29.046Z,535
2018-02-11T10:35:29.017Z,660
2018-02-11T10:36:28.989Z,645
2018-02-11T10:37:29.209Z,530
2018-02-11T10:38:29.188Z,460
2018-02-11T10:39:28.664Z,440
2018-02-11T10:40:29.138Z,420
2018-02-11T10:41:28.860Z,395
2018-02-11T10:42:29.086Z,475
2018-02-11T10:43:29.294Z,510
2018-02-11T10:44:29.025Z,555
2018-02-11T10:45:29.002Z,550
2018-02-11T10:46:28.970Z,635
2018-02-11T10:47:28.701Z,685
2018-02-11T10:48:29.177Z,690
2018-02-11T10:49:28.407Z,585
2018-02-11T10:50:29.112Z,565
2018-02-11T10:51:28.591Z,460
2018-02-11T10:52:28.816Z,485
2018-02-11T10:53:28.545Z,520
2018-02-11T10:54:29.123Z,570
2018-02-11T10:55:28.991Z,550
2018-02-11T10:56:28.975Z,485
2018-02-11T10:57:28.445Z,580
2018-02-11T10:58:28.661Z,555
2018-02-11T10:59:28.435Z,490
2018-02-11T11:00:28.371Z,475
2018-02-11T11:01:28.138Z,475
2018-02-11T11:02:28.565Z,460
2018-02-11T11:03:28.287Z,470
2018-02-11T11:04:28.507Z,405
2018-02-11T11:05:28.813Z,465
2018-02-11T11:06:28.694Z,465
2018-02-11T11:07:28.680Z,405
2018-02-11T11:08:29.311Z,330
2018-02-11T11:09:28.383Z,205
2018-02-11T11:10:28.624Z,220
2018-02-11T11:11:28.331Z,190
2018-02-11T11:12:28.346Z,190
2018-02-11T11:13:29.623Z,290
2018-02-11T11:14:28.502Z,480
2018-02-11T11:15:28.225Z,490
2018-02-11T11:16:28.454Z,455
2018-02-11T11:17:28.418Z,425
2018-02-11T11:18:27.901Z,375
2018-02-11T11:19:28.370Z,290
2018-02-11T11:20:28.100Z,260
2018-02-11T11:21:27.824Z,300
2018-02-11T11:22:27.798Z,405
2018-02-11T11:23:27.774Z,380
2018-02-11T11:24:28.243Z,340
2018-02-11T11:25:27.969Z,395
2018-02-11T11:26:27.705Z,440
2018-02-11T11:27:28.170Z,455
2018-02-11T11:28:27.889Z,475
2018-02-11T11:29:27.866Z,450
2018-02-11T11:30:27.353Z,440
2018-02-11T11:31:27.968Z,475
2018-02-11T11:32:27.789Z,545
2018-02-11T11:33:27.266Z,625
2018-02-11T11:34:27.742Z,705
2018-02-11T11:35:27.965Z,720
2018-02-11T11:36:27.446Z,730
2018-02-11T11:37:27.923Z,735
2018-02-11T11:38:27.386Z,700
2018-02-11T11:39:27.610Z,655
2018-02-11T11:40:27.828Z,630
2018-02-11T11:41:27.808Z,615
2018-02-11T11:42:27.774Z,580
2018-02-11T11:43:27.756Z,565
2018-02-11T11:44:27.608Z,600
2018-02-11T11:45:27.698Z,570
2018-02-11T11:46:27.674Z,545
2018-02-11T11:47:27.406Z,540
2018-02-11T11:48:27.375Z,530
2018-02-11T11:49:27.107Z,510
2018-02-11T11:50:27.336Z,545
2018-02-11T11:51:27.053Z,550
2018-02-11T11:52:27.036Z,555
2018-02-11T11:53:27.252Z,535
2018-02-11T11:54:26.782Z,450
2018-02-11T11:55:27.206Z,370
2018-02-11T11:56:27.506Z,350
2018-02-11T11:57:27.400Z,330
2018-02-11T11:58:26.891Z,290
2018-02-11T11:59:26.894Z,195
2018-02-11T12:00:27.335Z,145
2018-02-11T12:01:27.054Z,150
2018-02-11T12:02:27.274Z,155
2018-02-11T12:03:27.283Z,170
2018-02-11T12:04:26.740Z,180
2018-02-11T12:05:26.957Z,130
2018-02-11T12:06:27.173Z,105
2018-02-11T12:07:27.215Z,65
2018-02-11T12:08:26.881Z,50
2018-02-11T12:09:27.101Z,55
2018-02-11T12:10:26.332Z,55
2018-02-11T12:11:26.811Z,55
2018-02-11T12:12:27.023Z,50
2018-02-11T12:13:26.748Z,55
2018-02-11T12:14:26.492Z,65
2018-02-11T12:15:26.945Z,75
2018-02-11T12:16:26.917Z,80
2018-02-11T12:17:26.708Z,80
2018-02-11T12:18:26.373Z,75
2018-02-11T12:19:26.586Z,95
2018-02-11T12:20:26.317Z,120
2018-02-11T12:21:26.289Z,145
2018-02-11T12:22:26.506Z,130
2018-02-11T12:23:26.222Z,105
2018-02-11T12:24:26.450Z,95
2018-02-11T12:25:26.172Z,110
2018-02-11T12:26:26.393Z,130
2018-02-11T12:27:26.360Z,140
2018-02-11T12:28:26.088Z,180
2018-02-11T12:29:26.304Z,200
2018-02-11T12:30:26.281Z,200
2018-02-11T12:31:26.259Z,175
2018-02-11T12:32:26.223Z,160
2018-02-11T12:33:26.187Z,115
2018-02-11T12:34:26.408Z,105
2018-02-11T12:35:26.378Z,130
2018-02-11T12:36:26.357Z,145
2018-02-11T12:37:26.074Z,145
2018-02-11T12:38:25.797Z,145
2018-02-11T12:39:26.396Z,155
2018-02-11T12:40:25.742Z,150
2018-02-11T12:41:26.211Z,135
2018-02-11T12:42:26.218Z,135
2018-02-11T12:43:26.153Z,130
2018-02-11T12:44:25.870Z,120
2018-02-11T12:45:25.851Z,125
2018-02-11T12:46:25.827Z,125
2018-02-11T12:47:25.790Z,135
2018-02-11T12:48:25.761Z,160
2018-02-11T12:49:25.984Z,130
2018-02-11T12:50:25.702Z,145
2018-02-11T12:51:25.920Z,180
2018-02-11T12:52:25.905Z,220
2018-02-11T12:53:25.617Z,240
2018-02-11T12:54:25.843Z,235
2018-02-11T12:55:25.565Z,235
2018-02-11T12:56:25.287Z,245
2018-02-11T12:57:25.497Z,270
2018-02-11T12:58:25.482Z,305
2018-02-11T12:59:25.692Z,325
2018-02-11T13:00:25.167Z,335
2018-02-11T13:01:25.384Z,350
2018-02-11T13:02:25.606Z,345
2018-02-11T13:03:25.331Z,300
2018-02-11T13:04:25.305Z,265
2018-02-11T13:05:25.027Z,230
2018-02-11T13:06:25.488Z,230
2018-02-11T13:07:25.463Z,220
2018-02-11T13:08:25.184Z,225
2018-02-11T13:09:25.163Z,220
2018-02-11T13:10:25.135Z,250
2018-02-11T13:11:25.098Z,295
2018-02-11T13:12:25.409Z,320
2018-02-11T13:13:24.804Z,315
2018-02-11T13:14:25.262Z,290
2018-02-11T13:15:25.253Z,280
2018-02-11T13:16:25.209Z,260
2018-02-11T13:17:25.176Z,225
2018-02-11T13:18:24.664Z,210
2018-02-11T13:19:24.883Z,225
2018-02-11T13:20:24.857Z,235
2018-02-11T13:21:24.820Z,315
2018-02-11T13:22:24.794Z,345
2018-02-11T13:23:24.797Z,295
2018-02-11T13:24:24.494Z,240
2018-02-11T13:25:24.704Z,245
2018-02-11T13:26:24.927Z,245
2018-02-11T13:27:24.895Z,185
2018-02-11T13:28:24.385Z,245
2018-02-11T13:29:24.358Z,320
2018-02-11T13:30:24.685Z,325
2018-02-11T13:31:24.548Z,330
2018-02-11T13:32:24.506Z,320
2018-02-11T13:33:24.642Z,325
2018-02-11T13:34:24.111Z,330
2018-02-11T13:35:24.678Z,335
2018-02-11T13:36:24.649Z,335
2018-02-11T13:37:24.623Z,325
2018-02-11T13:38:24.349Z,315
2018-02-11T13:39:24.319Z,325
2018-02-11T13:40:24.292Z,345
2018-02-11T13:41:24.259Z,365
2018-02-11T13:42:24.476Z,390
2018-02-11T13:43:24.453Z,395
2018-02-11T13:44:24.179Z,385
2018-02-11T13:45:24.466Z,370
2018-02-11T13:46:24.963Z,340
2018-02-11T13:47:24.096Z,310
2018-02-11T13:48:24.065Z,290
2018-02-11T13:49:24.288Z,295
2018-02-11T13:50:24.014Z,325
2018-02-11T13:51:23.988Z,375
2018-02-11T13:52:23.961Z,415
2018-02-11T13:53:23.946Z,440
2018-02-11T13:54:24.149Z,455
2018-02-11T13:55:23.626Z,470
2018-02-11T13:56:23.848Z,470
2018-02-11T13:57:23.822Z,475
2018-02-11T13:58:24.047Z,485
2018-02-11T13:59:23.764Z,475
2018-02-11T14:00:23.782Z,465
2018-02-11T14:01:23.970Z,460
2018-02-11T14:02:23.935Z,460
2018-02-11T14:03:23.911Z,455
2018-02-11T14:04:23.632Z,450
2018-02-11T14:05:23.853Z,450
2018-02-11T14:06:23.400Z,450
2018-02-11T14:07:23.788Z,460
2018-02-11T14:08:23.777Z,460
2018-02-11T14:09:23.490Z,455
2018-02-11T14:10:23.716Z,445
2018-02-11T14:11:23.194Z,440
2018-02-11T14:12:23.415Z,440
2018-02-11T14:13:23.383Z,440
2018-02-11T14:14:23.399Z,435
2018-02-11T14:15:23.343Z,425
2018-02-11T14:16:23.064Z,425
2018-02-11T14:17:23.522Z,415
2018-02-11T14:18:23.000Z,410